Time;durP1;ratioP1;P1;durP2;ratioP2;P2;SDS_P1;SDS_P2;PMS_P1;PMS_P2;Temp;Humidity;BMP_temperature;BMP_pressure;BME280_temperature;BME280_humidity;BME280_pressure;Samples;Min_cycle;Max_cycle;Signal;HPM_P1;HPM_P2
2021/11/02 00:02:01;;;;;;;4.67;2.50;;;;;;;8.77;79.56;99014.50;5013935;28;20491;-79
2021/11/02 00:04:26;;;;;;;3.73;2.77;;;;;;;8.79;79.94;99015.03;5022605;28;20412;-78
2021/11/02 00:06:51;;;;;;;4.60;2.33;;;;;;;8.79;80.01;99006.13;5021420;28;20395;-78
2021/11/02 00:09:21;;;;;;;2.93;1.87;;;;;;;8.82;80.52;99014.50;5026683;28;20921;-79
2021/11/02 00:11:46;;;;;;;3.65;1.73;;;;;;;8.87;81.09;99013.69;5025155;28;20422;-78
2021/11/02 00:14:13;;;;;;;5.63;1.60;;;;;;;8.92;81.40;99021.00;5023325;28;20764;-79
2021/11/02 00:16:39;;;;;;;2.63;1.40;;;;;;;8.88;81.96;99018.03;5021153;28;20391;-79
2021/11/02 00:19:06;;;;;;;2.00;1.37;;;;;;;8.90;82.46;99018.56;5031055;28;20757;-79
2021/11/02 00:21:35;;;;;;;2.42;1.60;;;;;;;8.95;82.42;99017.78;5018046;28;20419;-79
2021/11/02 00:26:44;;;;;;;3.93;1.60;;;;;;;9.06;81.84;99019.38;5017804;28;20396;-79
2021/11/02 00:29:10;;;;;;;4.80;1.80;;;;;;;9.09;81.58;99024.28;5021782;28;20891;-79
2021/11/02 00:31:35;;;;;;;6.90;1.95;;;;;;;9.09;82.04;99025.06;5026582;28;20406;-79
2021/11/02 00:34:01;;;;;;;2.30;1.30;;;;;;;9.12;81.70;99024.50;5025896;28;20743;-78
2021/11/02 00:36:27;;;;;;;2.08;1.38;;;;;;;9.11;82.36;99020.22;5042752;28;20855;-79
2021/11/02 00:38:52;;;;;;;2.57;1.60;;;;;;;9.14;81.91;99013.44;5018240;28;20400;-78
2021/11/02 00:41:17;;;;;;;2.50;1.40;;;;;;;9.15;82.09;99012.38;5029874;28;20498;-78
2021/11/02 00:43:44;;;;;;;4.07;1.40;;;;;;;9.18;82.05;99006.44;5030750;28;20410;-78
2021/11/02 00:46:10;;;;;;;3.33;1.20;;;;;;;9.19;82.08;99011.53;5023637;28;20511;-79
2021/11/02 00:48:35;;;;;;;5.60;1.67;;;;;;;9.18;82.04;99009.94;5029754;28;20925;-78
2021/11/02 00:51:00;;;;;;;3.30;1.17;;;;;;;9.21;82.11;99005.88;5027198;28;20416;-78
2021/11/02 00:53:26;;;;;;;3.93;1.03;;;;;;;9.18;82.66;99009.94;5018941;28;20398;-79
2021/11/02 00:55:51;;;;;;;2.73;1.40;;;;;;;9.23;82.42;99003.72;5027145;28;20430;-79
2021/11/02 00:58:19;;;;;;;3.92;1.50;;;;;;;9.27;82.26;99004.78;5030546;28;20427;-79
2021/11/02 01:00:45;;;;;;;4.30;1.30;;;;;;;9.30;82.32;98996.13;5014562;28;20435;-79
2021/11/02 01:03:10;;;;;;;3.45;1.20;;;;;;;9.32;82.45;99002.06;5025988;28;20403;-79
2021/11/02 01:05:36;;;;;;;5.47;1.05;;;;;;;9.34;82.31;99002.63;5032578;28;20429;-78
2021/11/02 01:08:03;;;;;;;1.65;0.95;;;;;;;9.36;82.32;99008.56;5033873;28;20426;-79
2021/11/02 01:10:28;;;;;;;1.27;1.00;;;;;;;9.37;82.59;99015.59;5017775;28;20891;-79
2021/11/02 01:12:53;;;;;;;2.53;1.43;;;;;;;9.42;82.15;99007.47;5017040;28;20434;-78
2021/11/02 01:15:22;;;;;;;4.78;1.77;;;;;;;9.45;82.46;99016.94;5021898;28;20468;-79
2021/11/02 01:17:47;;;;;;;2.40;0.90;;;;;;;9.48;81.99;99011.00;5032987;28;20908;-78
2021/11/02 01:20:15;;;;;;;1.58;1.00;;;;;;;9.49;82.38;99008.00;5018426;28;20512;-78
2021/11/02 01:22:42;;;;;;;1.50;0.95;;;;;;;9.49;82.08;99005.28;5020196;28;20411;-78
2021/11/02 01:25:08;;;;;;;3.20;1.30;;;;;;;9.49;82.26;99009.91;5029432;28;20400;-79
2021/11/02 01:27:34;;;;;;;1.70;0.95;;;;;;;9.40;82.77;99004.25;5026464;28;20438;-78
2021/11/02 01:30:00;;;;;;;3.83;1.17;;;;;;;9.39;82.88;98999.91;5017918;28;20429;-78
2021/11/02 01:32:25;;;;;;;2.20;1.13;;;;;;;9.33;82.90;99004.50;5027413;28;20411;-78
2021/11/02 01:34:51;;;;;;;3.00;1.10;;;;;;;9.36;83.04;99003.97;5026237;28;20759;-78
2021/11/02 01:37:16;;;;;;;4.93;1.30;;;;;;;9.36;82.75;99009.38;5013649;28;20463;-78
2021/11/02 01:39:41;;;;;;;1.50;1.20;;;;;;;9.37;82.55;99002.91;5033225;28;20410;-78
2021/11/02 01:42:07;;;;;;;1.70;1.20;;;;;;;9.35;82.85;99005.03;5017482;28;20413;-78
2021/11/02 01:44:33;;;;;;;5.78;1.40;;;;;;;9.36;82.98;99001.25;5033496;28;20391;-78
2021/11/02 01:46:58;;;;;;;2.70;0.95;;;;;;;9.39;82.76;99002.59;5023126;28;20405;-77
2021/11/02 01:49:24;;;;;;;2.08;1.20;;;;;;;9.38;82.70;99007.19;5019030;28;20400;-78
2021/11/02 01:51:49;;;;;;;5.13;1.40;;;;;;;9.37;82.74;99005.59;5023386;28;20413;-78
2021/11/02 01:54:16;;;;;;;4.40;1.07;;;;;;;9.42;82.70;98998.56;5027337;28;20437;-78
2021/11/02 01:56:48;;;;;;;3.00;1.20;;;;;;;9.43;82.54;98997.47;5025239;28;20436;-78
2021/11/02 01:59:14;;;;;;;2.15;1.17;;;;;;;9.45;82.64;98993.41;5028031;28;20411;-78
2021/11/02 02:01:51;;;;;;;3.13;1.30;;;;;;;9.44;82.43;99004.50;5015657;28;20455;-77
2021/11/02 02:04:37;;;;;;;3.38;1.10;;;;;;;9.42;82.43;99004.75;5018669;28;20429;-78
2021/11/02 02:07:24;;;;;;;6.70;1.30;;;;;;;9.43;82.75;99005.59;5023562;28;20754;-78
2021/11/02 02:10:11;;;;;;;2.60;1.17;;;;;;;9.39;82.62;99003.44;5014947;28;20531;-78
2021/11/02 02:13:01;;;;;;;5.57;1.73;;;;;;;9.35;82.79;99002.34;5019975;28;20405;-78
2021/11/02 02:15:36;;;;;;;3.90;1.20;;;;;;;9.37;82.83;99011.00;5023886;28;20412;-78
2021/11/02 02:18:14;;;;;;;4.00;1.87;;;;;;;9.37;82.94;99008.31;5024118;28;20459;-78
2021/11/02 02:20:53;;;;;;;6.05;1.60;;;;;;;9.43;82.66;99008.28;5015418;28;20563;-78
2021/11/02 02:23:47;;;;;;;3.47;1.70;;;;;;;9.43;82.55;99001.00;5028297;28;20407;-78
2021/11/02 02:26:54;;;;;;;6.55;1.90;;;;;;;9.42;82.83;98991.25;5021174;28;20422;-78
2021/11/02 02:29:21;;;;;;;2.92;1.48;;;;;;;9.38;82.81;98984.78;5016359;28;20388;-79
2021/11/02 02:31:47;;;;;;;3.45;1.85;;;;;;;9.33;82.71;98988.28;5022593;28;20410;-78
2021/11/02 02:34:15;;;;;;;4.60;1.63;;;;;;;9.31;82.84;98985.06;5022937;28;20773;-78
2021/11/02 02:36:43;;;;;;;4.75;1.65;;;;;;;9.31;83.13;98985.06;5016007;28;20980;-78
2021/11/02 02:39:10;;;;;;;5.32;1.35;;;;;;;9.27;82.83;98983.97;5024176;28;20889;-79
2021/11/02 02:41:38;;;;;;;7.75;1.60;;;;;;;9.31;82.91;98986.94;5026190;28;20447;-78
2021/11/02 02:44:05;;;;;;;7.40;1.63;;;;;;;9.31;83.09;98986.94;5030773;28;20993;-79
2021/11/02 02:46:31;;;;;;;3.35;1.00;;;;;;;9.30;82.86;98988.03;5026947;28;20423;-78
2021/11/02 02:48:57;;;;;;;31.97;23.17;;;;;;;9.29;83.06;98989.09;5012608;28;20884;-79
2021/11/02 02:51:23;;;;;;;7.88;2.30;;;;;;;9.27;82.68;98983.97;5030624;28;20950;-78
2021/11/02 02:53:49;;;;;;;6.43;1.48;;;;;;;9.21;83.21;98985.06;5022434;28;20404;-77
2021/11/02 02:56:18;;;;;;;4.28;1.60;;;;;;;9.19;83.07;98972.88;5021310;28;20409;-78
2021/11/02 02:58:47;;;;;;;5.90;1.70;;;;;;;9.18;83.28;98985.63;5029978;28;20391;-78
2021/11/02 03:01:16;;;;;;;9.27;1.80;;;;;;;9.17;82.80;98983.16;5019720;28;20426;-78
2021/11/02 03:04:02;;;;;;;3.40;1.67;;;;;;;9.12;83.10;98983.97;5021823;28;20395;-78
2021/11/02 03:06:31;;;;;;;5.15;2.17;;;;;;;9.10;83.40;98986.16;5014230;28;20408;-78
2021/11/02 03:08:58;;;;;;;4.15;1.38;;;;;;;9.05;83.57;98978.06;5030020;28;20449;-78
2021/11/02 03:11:26;;;;;;;4.40;1.50;;;;;;;9.05;83.23;98982.66;5031223;28;20407;-78
2021/11/02 03:13:55;;;;;;;3.65;1.45;;;;;;;9.05;83.27;98980.75;5022492;28;20412;-78
2021/11/02 03:16:34;;;;;;;4.57;1.30;;;;;;;9.04;83.60;98972.91;5016870;28;20900;-78
2021/11/02 03:49:26;;;;;;;1.70;1.60;;;;;;;8.84;84.01;98981.81;5024343;28;20390;-78
2021/11/02 03:54:46;;;;;;;3.90;1.35;;;;;;;8.84;83.84;98979.94;5013352;28;20444;-77
2021/11/02 04:00:32;;;;;;;3.60;1.73;;;;;;;8.88;84.34;98984.78;5013574;28;20438;-78
2021/11/02 04:28:12;;;;;;;6.82;1.48;;;;;;;8.73;83.80;98967.50;5021902;28;20418;-78
2021/11/02 05:49:30;;;;;;;3.73;1.80;;;;;;;8.15;83.09;98957.09;5029147;28;20935;-77
2021/11/02 05:55:01;;;;;;;4.53;1.75;;;;;;;8.04;83.67;98963.53;5019942;28;20471;-77
2021/11/02 05:58:14;;;;;;;5.37;1.70;;;;;;;8.01;83.51;98959.47;5023255;28;20395;-78
2021/11/02 06:00:19;;;;;;;3.38;1.90;;;;;;;7.99;83.26;98956.25;5014040;28;20421;-77
2021/11/02 06:08:11;;;;;;;5.78;2.78;;;;;;;7.99;82.84;98948.16;5029150;28;20760;-77
2021/11/02 06:27:53;;;;;;;7.53;3.20;;;;;;;7.86;83.08;98969.41;5030849;28;20900;-78
2021/11/02 06:30:31;;;;;;;4.75;2.00;;;;;;;7.86;83.35;98970.22;5032289;28;20766;-78
2021/11/02 06:33:46;;;;;;;4.83;2.20;;;;;;;7.91;82.86;98962.13;5015584;28;20403;-77
2021/11/02 06:36:12;;;;;;;4.43;1.63;;;;;;;7.93;82.52;98964.56;5022358;28;20394;-77
2021/11/02 06:45:11;;;;;;;6.50;3.00;;;;;;;7.91;80.66;98969.41;5026206;28;20410;-77
2021/11/02 06:55:04;;;;;;;5.40;2.13;;;;;;;8.02;80.89;98979.19;5031468;28;20397;-77
2021/11/02 07:10:49;;;;;;;3.33;1.95;;;;;;;8.20;81.12;98971.41;4985301;28;20957;-78
2021/11/02 08:46:36;;;;;;;10.43;7.20;;;;;;;9.94;79.41;99007.09;5016600;28;20388;-76
2021/11/02 08:49:03;;;;;;;7.50;5.63;;;;;;;9.97;79.47;99011.97;5029488;28;20410;-77
2021/11/02 08:51:29;;;;;;;9.93;6.35;;;;;;;9.94;79.48;99009.00;5031695;28;20413;-77
2021/11/02 08:53:55;;;;;;;8.07;5.30;;;;;;;9.91;80.08;99011.16;5031885;28;20403;-77
2021/11/02 08:56:22;;;;;;;6.60;3.90;;;;;;;9.96;80.24;99014.94;5032931;28;20405;-78
2021/11/02 08:58:51;;;;;;;6.13;3.65;;;;;;;9.93;80.37;99015.47;5016418;28;20423;-78
2021/11/02 09:01:18;;;;;;;4.70;2.33;;;;;;;9.89;80.41;99016.03;5016902;28;20421;-78
2021/11/02 09:03:46;;;;;;;5.80;3.10;;;;;;;9.85;80.87;99012.25;5024487;28;20432;-78
2021/11/02 09:06:15;;;;;;;4.20;3.07;;;;;;;9.83;81.54;99013.63;5017586;28;20409;-78
2021/11/02 09:08:44;;;;;;;4.20;2.38;;;;;;;9.84;81.28;99009.84;5032517;28;20816;-78
2021/11/02 09:11:13;;;;;;;2.17;2.00;;;;;;;9.83;81.38;99010.91;5023427;28;20504;-78
2021/11/02 09:13:41;;;;;;;3.92;2.05;;;;;;;9.82;81.64;99015.50;5028938;28;21548;-79
2021/11/02 09:16:07;;;;;;;3.42;1.70;;;;;;;9.78;81.66;99019.84;5021327;28;20476;-79
2021/11/02 09:18:33;;;;;;;4.90;1.90;;;;;;;9.74;81.93;99017.97;5023376;28;20789;-79
2021/11/02 09:20:58;;;;;;;4.43;2.57;;;;;;;9.69;82.30;99015.28;5025360;28;20447;-78
2021/11/02 09:23:26;;;;;;;4.33;2.37;;;;;;;9.67;82.55;99018.25;5024148;28;20399;-78
2021/11/02 09:25:55;;;;;;;6.45;2.58;;;;;;;9.82;81.73;99022.81;5029200;28;20731;-78
2021/11/02 09:28:21;;;;;;;3.22;1.70;;;;;;;9.85;81.86;99020.38;5029965;28;20909;-78
2021/11/02 09:30:46;;;;;;;4.50;2.10;;;;;;;9.87;82.16;99012.81;5019834;28;20403;-78
2021/11/02 09:33:12;;;;;;;2.95;1.63;;;;;;;9.86;82.28;99019.28;5023455;28;20440;-78
2021/11/02 09:35:38;;;;;;;2.78;1.90;;;;;;;9.80;82.76;99016.88;5027969;28;20417;-77
2021/11/02 09:38:32;;;;;;;3.42;2.20;;;;;;;9.82;82.81;99014.69;5023735;28;20879;-78
2021/11/02 09:41:33;;;;;;;6.72;2.38;;;;;;;9.85;83.28;99020.38;5023870;28;20419;-78
2021/11/02 09:44:23;;;;;;;5.13;2.20;;;;;;;9.86;83.63;99013.88;5015326;28;20413;-78
2021/11/02 09:47:07;;;;;;;3.47;2.05;;;;;;;9.98;83.67;99023.59;5029725;28;20411;-78
2021/11/02 09:49:57;;;;;;;3.95;2.38;;;;;;;10.03;83.46;99018.16;5025375;28;20407;-81
2021/11/02 09:52:41;;;;;;;3.20;2.00;;;;;;;10.02;83.26;99017.34;5021080;28;20522;-80
2021/11/02 09:55:25;;;;;;;6.88;3.80;;;;;;;10.03;83.30;99020.88;5019954;28;20424;-80
2021/11/02 09:57:56;;;;;;;2.30;1.83;;;;;;;10.03;83.32;99018.97;5029953;28;20435;-79
2021/11/02 10:00:33;;;;;;;3.22;2.30;;;;;;;10.03;83.77;99020.88;5026831;28;20427;-80
2021/11/02 10:03:27;;;;;;;5.32;3.30;;;;;;;10.08;82.99;99026.25;5031685;28;20430;-79
2021/11/02 10:06:25;;;;;;;3.80;1.65;;;;;;;9.97;83.57;99020.09;5017842;28;20434;-80
2021/11/02 10:09:21;;;;;;;6.32;2.13;;;;;;;9.97;84.11;99017.38;5015490;28;20420;-80
2021/11/02 10:12:02;;;;;;;5.45;1.75;;;;;;;9.98;84.17;99029.78;5028145;28;20411;-81
2021/11/02 10:14:48;;;;;;;4.03;2.15;;;;;;;9.97;84.52;99021.97;5022743;28;20410;-80
2021/11/02 10:17:41;;;;;;;5.68;2.28;;;;;;;9.98;84.37;99020.91;5015167;28;20397;-80
2021/11/02 10:20:07;;;;;;;4.97;2.13;;;;;;;9.94;84.60;99022.53;5022453;28;20417;-81
2021/11/02 10:22:52;;;;;;;5.07;2.47;;;;;;;9.91;84.98;99027.38;5023623;28;20503;-81
2021/11/02 10:25:46;;;;;;;21.15;16.25;;;;;;;9.95;84.74;99030.34;5022937;28;20443;-80
2021/11/02 10:28:27;;;;;;;7.38;2.85;;;;;;;10.00;84.69;99022.22;5011492;28;20412;-79
2021/11/02 10:31:06;;;;;;;3.20;1.40;;;;;;;10.20;84.22;99026.78;5016568;28;20409;-79
2021/11/02 10:33:35;;;;;;;6.32;2.70;;;;;;;10.37;83.90;99027.25;5023844;28;20403;-81
2021/11/02 10:36:13;;;;;;;4.90;2.08;;;;;;;10.52;83.55;99019.06;5020574;28;20400;-80
2021/11/02 10:39:08;;;;;;;2.45;1.45;;;;;;;10.81;82.58;99016.44;5017756;28;20904;-81
2021/11/02 10:41:43;;;;;;;12.02;3.55;;;;;;;10.88;82.15;99019.66;5023511;28;20426;-80
2021/11/02 10:44:29;;;;;;;2.88;1.13;;;;;;;11.03;81.59;99021.44;5023251;28;20419;-81
2021/11/02 10:47:16;;;;;;;9.50;4.00;;;;;;;11.19;81.39;99023.75;5013736;28;20776;-81
2021/11/02 10:50:08;;;;;;;3.50;2.15;;;;;;;11.25;81.23;99021.81;5012203;28;20404;-80
2021/11/02 10:52:36;;;;;;;4.57;1.85;;;;;;;11.14;80.60;99029.22;5026394;28;20921;-81
2021/11/02 10:55:39;;;;;;;2.25;1.88;;;;;;;11.06;80.62;99026.31;5018982;28;20464;-78
2021/11/02 10:58:23;;;;;;;2.28;1.08;;;;;;;11.00;81.02;99025.50;5012610;28;20945;-79
2021/11/02 11:00:50;;;;;;;5.03;2.17;;;;;;;10.90;80.88;99022.88;5025120;28;20427;-80
2021/11/02 11:03:18;;;;;;;0.57;0.57;;;;;;;10.86;81.13;99019.13;5020233;28;20923;-79
2021/11/02 11:05:47;;;;;;;2.08;0.70;;;;;;;10.91;80.74;99021.78;5021493;28;20563;-79
2021/11/02 11:08:15;;;;;;;2.28;1.10;;;;;;;10.88;80.62;99022.34;5014725;28;20399;-81
2021/11/02 11:10:43;;;;;;;2.17;1.42;;;;;;;10.84;80.96;99022.09;5011277;28;20420;-80
2021/11/02 11:13:12;;;;;;;4.10;2.38;;;;;;;10.85;81.04;99018.31;5011100;28;20462;-80
2021/11/02 11:15:40;;;;;;;5.50;1.10;;;;;;;10.99;80.80;99028.53;5011120;28;20421;-81
2021/11/02 11:18:08;;;;;;;3.38;1.27;;;;;;;11.17;79.67;99023.22;5011876;28;20415;-81
2021/11/02 11:20:36;;;;;;;2.30;0.70;;;;;;;11.40;78.87;99030.63;5021527;28;20930;-80
2021/11/02 11:23:07;;;;;;;3.10;1.15;;;;;;;11.44;79.55;99023.53;5023512;28;20407;-81
2021/11/02 11:25:54;;;;;;;2.33;0.80;;;;;;;11.45;79.66;99022.44;5016566;28;20406;-83
2021/11/02 11:28:21;;;;;;;3.10;1.10;;;;;;;11.43;79.92;99023.81;5021375;28;20419;-81
2021/11/02 11:30:47;;;;;;;2.80;0.88;;;;;;;11.38;79.86;99013.81;5011574;28;20531;-82
2021/11/02 11:33:21;;;;;;;0.98;0.70;;;;;;;11.53;78.60;99025.63;5013837;28;20407;-81
2021/11/02 11:35:49;;;;;;;1.02;0.65;;;;;;;11.64;78.59;99022.53;5011002;28;20435;-82
2021/11/02 11:38:15;;;;;;;0.77;0.70;;;;;;;11.74;78.36;99027.88;5014135;28;20410;-79
2021/11/02 11:40:43;;;;;;;2.67;1.50;;;;;;;11.70;78.85;99021.41;5013575;28;20420;-80
2021/11/02 11:43:11;;;;;;;1.95;0.93;;;;;;;11.93;78.83;99020.63;5025129;28;20438;-84
2021/11/02 11:45:40;;;;;;;0.85;0.60;;;;;;;11.99;77.03;99020.59;5011436;28;20944;-80
2021/11/02 11:48:11;;;;;;;2.15;0.65;;;;;;;11.88;77.90;99007.13;5014107;28;20420;-80
2021/11/02 11:50:39;;;;;;;2.60;0.80;;;;;;;11.94;77.63;99019.53;5022670;28;20508;-81
2021/11/02 11:53:06;;;;;;;0.90;0.85;;;;;;;11.75;78.39;99015.13;5023668;28;20402;-81
2021/11/02 11:55:37;;;;;;;2.70;1.00;;;;;;;11.66;78.16;99012.19;5019016;28;20395;-78
2021/11/02 11:58:13;;;;;;;3.42;0.80;;;;;;;11.71;77.51;99003.22;5025608;28;20487;-80
2021/11/02 12:00:42;;;;;;;2.42;1.65;;;;;;;11.83;78.38;99004.44;5021380;28;20972;-79
2021/11/02 12:03:13;;;;;;;2.40;1.27;;;;;;;11.92;77.12;98999.22;5020124;28;20411;-80
2021/11/02 12:05:48;;;;;;;1.60;1.02;;;;;;;11.86;77.28;98990.28;5027972;28;20404;-79
2021/11/02 12:08:35;;;;;;;8.33;4.67;;;;;;;11.85;77.12;98994.13;5026634;28;20489;-80
2021/11/02 12:11:03;;;;;;;6.18;3.20;;;;;;;12.10;78.08;98989.47;5017255;28;20427;-80
2021/11/02 12:13:29;;;;;;;3.72;1.40;;;;;;;12.23;77.29;98983.34;5024358;28;20419;-81
2021/11/02 12:16:43;;;;;;;1.40;0.65;;;;;;;12.28;77.19;98973.22;5023568;28;20893;-79
2021/11/02 12:19:11;;;;;;;1.33;1.20;;;;;;;12.26;77.13;98969.19;5024480;28;20379;-80
2021/11/02 12:21:38;;;;;;;1.10;1.10;;;;;;;12.05;77.82;98973.28;5021963;28;20420;-80
2021/11/02 12:24:06;;;;;;;1.40;1.10;;;;;;;11.67;79.89;98972.31;5022486;28;20484;-80
2021/11/02 12:26:49;;;;;;;2.72;0.80;;;;;;;11.70;79.55;98972.56;5029076;28;20419;-79
2021/11/02 12:29:32;;;;;;;2.10;1.10;;;;;;;12.03;78.43;98965.41;5020770;28;20728;-79
2021/11/02 12:32:04;;;;;;;1.00;0.80;;;;;;;12.17;77.15;98960.06;5019707;28;20412;-79
2021/11/02 12:34:42;;;;;;;2.70;0.95;;;;;;;12.02;77.63;98969.19;5020155;28;20919;-79
2021/11/02 12:37:11;;;;;;;0.98;0.98;;;;;;;12.08;77.97;98970.78;5029876;28;21026;-81
2021/11/02 12:39:37;;;;;;;1.40;0.70;;;;;;;12.02;77.00;98969.19;5022067;28;20449;-77
2021/11/02 12:42:03;;;;;;;2.80;1.10;;;;;;;11.99;77.17;98969.78;5033630;28;20885;-80
2021/11/02 12:44:34;;;;;;;2.50;1.17;;;;;;;12.01;77.74;98970.31;5029431;28;20400;-81
2021/11/02 12:47:02;;;;;;;0.80;0.80;;;;;;;12.24;76.28;98966.78;5019788;28;20875;-80
2021/11/02 12:49:46;;;;;;;1.13;0.47;;;;;;;12.15;74.96;98960.34;5018128;28;20438;-81
2021/11/02 12:52:12;;;;;;;0.50;0.40;;;;;;;11.86;75.14;98957.72;5026512;28;20968;-78
2021/11/02 12:54:42;;;;;;;4.10;1.80;;;;;;;11.86;76.16;98968.59;5022105;28;20408;-79
2021/11/02 12:57:16;;;;;;;2.50;0.60;;;;;;;12.15;75.18;98968.50;5020564;28;20470;-79
2021/11/02 12:59:48;;;;;;;11.77;4.93;;;;;;;12.12;74.44;98960.16;5029354;28;20904;-81
2021/11/02 13:02:35;;;;;;;0.90;0.60;;;;;;;12.20;73.57;98967.63;5022321;28;20483;-82
2021/11/02 13:05:06;;;;;;;2.50;1.00;;;;;;;12.03;74.46;98961.88;5017209;28;20420;-78
2021/11/02 13:07:38;;;;;;;0.80;0.80;;;;;;;11.89;74.78;98959.84;5016684;28;20482;-78
2021/11/02 13:10:12;;;;;;;0.95;0.70;;;;;;;11.78;75.93;98954.84;5022001;28;20420;-79
2021/11/02 13:12:40;;;;;;;0.40;0.40;;;;;;;11.60;76.99;98950.94;5014643;28;20884;-81
2021/11/02 13:15:10;;;;;;;0.93;0.45;;;;;;;11.49;77.61;98957.59;5022054;28;20503;-78
2021/11/02 13:17:42;;;;;;;1.50;0.77;;;;;;;11.36;77.72;98963.69;5030645;28;20474;-79
2021/11/02 13:20:08;;;;;;;1.08;0.63;;;;;;;11.32;77.93;98963.44;5024925;28;20512;-79
2021/11/02 13:22:33;;;;;;;1.15;0.60;;;;;;;11.33;78.58;98959.63;5020724;28;20400;-79
2021/11/02 13:25:05;;;;;;;1.55;0.80;;;;;;;11.22;78.63;98962.72;5015513;28;20393;-78
2021/11/02 13:27:45;;;;;;;1.05;0.65;;;;;;;11.10;78.89;98951.44;5019715;28;20499;-78
2021/11/02 13:30:31;;;;;;;0.65;0.65;;;;;;;11.07;78.08;98941.16;5013595;28;20404;-79
2021/11/02 13:33:02;;;;;;;1.50;0.47;;;;;;;11.12;78.03;98954.69;5016470;28;20411;-79
2021/11/02 13:35:44;;;;;;;1.02;0.52;;;;;;;11.13;77.41;98951.66;5024255;28;20907;-80
2021/11/02 13:38:29;;;;;;;0.80;0.50;;;;;;;11.08;78.09;98940.06;5032066;28;20391;-82
2021/11/02 13:40:57;;;;;;;0.70;0.70;;;;;;;11.02;78.31;98942.03;5021300;28;20415;-81
2021/11/02 13:43:37;;;;;;;0.60;0.50;;;;;;;11.08;78.18;98942.78;5028012;28;20757;-80
2021/11/02 13:46:04;;;;;;;1.90;0.50;;;;;;;11.25;77.05;98952.13;5015450;28;20834;-79
2021/11/02 13:48:32;;;;;;;0.73;0.68;;;;;;;11.39;76.75;98957.69;5021280;28;20461;-78
2021/11/02 13:50:58;;;;;;;1.05;0.57;;;;;;;11.57;75.54;98953.41;5024434;28;20496;-80
2021/11/02 13:53:24;;;;;;;1.63;1.45;;;;;;;11.64;75.59;98956.59;5024495;28;20487;-80
2021/11/02 13:55:51;;;;;;;1.25;1.25;;;;;;;11.75;75.68;98950.81;5023752;28;20403;-80
2021/11/02 13:58:17;;;;;;;0.90;0.90;;;;;;;11.80;75.08;98953.47;5016895;28;20415;-79
2021/11/02 14:00:42;;;;;;;1.80;0.40;;;;;;;11.76;73.42;98960.56;5025766;28;20415;-80
2021/11/02 14:03:13;;;;;;;0.80;0.37;;;;;;;11.93;73.13;98971.75;5022189;28;20534;-80
2021/11/02 14:05:41;;;;;;;1.15;1.13;;;;;;;11.87;73.26;98962.06;5020668;28;20400;-80
2021/11/02 14:08:07;;;;;;;0.70;0.50;;;;;;;11.91;73.22;98965.00;5015001;28;20444;-79
2021/11/02 14:10:33;;;;;;;0.30;0.30;;;;;;;11.87;72.85;98959.34;5024449;28;20481;-79
2021/11/02 14:12:58;;;;;;;0.60;0.60;;;;;;;11.72;72.84;98970.34;5019791;28;20409;-78
2021/11/02 14:15:31;;;;;;;0.35;0.25;;;;;;;11.56;73.79;98966.16;5019713;28;20810;-80
2021/11/02 14:17:56;;;;;;;2.60;0.50;;;;;;;11.51;73.19;98978.97;5023033;28;20912;-78
2021/11/02 14:20:40;;;;;;;3.70;0.87;;;;;;;11.39;74.47;98985.59;5023901;28;20419;-79
2021/11/02 14:23:08;;;;;;;1.70;0.40;;;;;;;11.30;75.63;98990.03;5028682;28;20486;-79
2021/11/02 14:25:36;;;;;;;4.28;0.55;;;;;;;11.19;75.98;98990.41;5023560;28;20415;-79
2021/11/02 14:28:08;;;;;;;0.30;0.30;;;;;;;11.19;77.04;98985.81;5027120;28;20478;-80
2021/11/02 14:30:44;;;;;;;1.70;1.27;;;;;;;11.12;77.39;98990.75;5020274;28;20452;-77
2021/11/02 14:33:17;;;;;;;8.70;3.97;;;;;;;11.10;77.68;98992.91;5023707;28;20897;-79
2021/11/02 14:35:44;;;;;;;1.13;1.02;;;;;;;11.03;78.26;98986.22;5018653;28;20403;-78
2021/11/02 14:38:20;;;;;;;2.17;1.00;;;;;;;11.00;78.04;98992.97;5018969;28;20609;-79
2021/11/02 14:40:49;;;;;;;3.83;1.90;;;;;;;10.95;78.24;98990.31;5017465;28;22419;-79
2021/11/02 14:43:14;;;;;;;3.42;1.80;;;;;;;10.90;78.18;98991.16;5020415;28;20405;-80
2021/11/02 14:45:45;;;;;;;2.13;1.87;;;;;;;10.84;78.64;99002.31;5023476;28;20769;-80
2021/11/02 14:48:22;;;;;;;8.10;2.03;;;;;;;10.77;79.57;99021.59;5020768;28;20457;-79
2021/11/02 14:50:49;;;;;;;4.17;2.53;;;;;;;10.53;80.44;99009.84;5015794;28;20438;-79
2021/11/02 14:53:37;;;;;;;2.53;1.40;;;;;;;10.28;81.14;99016.19;5034206;28;20473;-80
2021/11/02 14:56:11;;;;;;;1.00;1.00;;;;;;;10.16;81.51;99018.41;5016791;28;20408;-80
2021/11/02 14:58:39;;;;;;;1.42;1.33;;;;;;;10.02;82.17;99032.75;5028118;28;20398;-78
2021/11/02 15:01:18;;;;;;;4.60;0.93;;;;;;;10.00;82.71;99045.78;5022603;28;20420;-77
2021/11/02 15:04:06;;;;;;;2.05;1.23;;;;;;;9.73;83.34;99044.22;5019939;28;20395;-78
2021/11/02 15:06:43;;;;;;;2.78;1.65;;;;;;;9.56;84.28;99045.59;5014057;28;20415;-80
2021/11/02 15:09:11;;;;;;;1.20;1.20;;;;;;;9.57;83.76;99048.03;5028886;28;20883;-80
2021/11/02 15:11:38;;;;;;;1.40;1.30;;;;;;;9.62;83.75;99050.72;5029796;28;20921;-78
2021/11/02 15:14:06;;;;;;;1.90;0.90;;;;;;;9.70;83.66;99052.06;5029606;28;20881;-79
2021/11/02 15:16:40;;;;;;;2.75;0.60;;;;;;;9.66;83.88;99040.97;5013973;28;20416;-78
2021/11/02 15:19:05;;;;;;;2.60;0.90;;;;;;;9.76;84.21;99037.44;5018697;28;20763;-77
2021/11/02 15:21:36;;;;;;;1.05;0.80;;;;;;;9.82;83.84;99031.75;5023364;28;20433;-79
2021/11/02 15:24:06;;;;;;;0.70;0.70;;;;;;;9.94;83.30;99038.75;5013616;28;20423;-79
2021/11/02 15:26:44;;;;;;;1.40;0.40;;;;;;;10.02;83.09;99039.00;5024549;28;20905;-78
2021/11/02 15:29:11;;;;;;;0.65;0.32;;;;;;;10.05;82.39;99043.03;5022772;28;20436;-78
2021/11/02 15:31:37;;;;;;;0.47;0.30;;;;;;;10.08;82.39;99043.31;5024343;28;20415;-79
2021/11/02 15:34:15;;;;;;;1.50;0.50;;;;;;;10.08;82.12;99042.47;5022320;28;20404;-79
2021/11/02 15:36:43;;;;;;;0.55;0.30;;;;;;;10.10;81.52;99045.75;5018073;28;20410;-81
2021/11/02 15:39:09;;;;;;;0.30;0.30;;;;;;;10.08;81.87;99042.47;5026268;28;20403;-78
2021/11/02 15:41:35;;;;;;;1.40;0.60;;;;;;;10.09;82.60;99046.81;5030504;28;20419;-78
2021/11/02 15:44:06;;;;;;;1.02;1.02;;;;;;;10.08;82.18;99053.31;5025834;28;20779;-80
2021/11/02 15:46:33;;;;;;;2.10;1.83;;;;;;;10.03;82.08;99054.16;5015525;28;20802;-79
2021/11/02 15:49:02;;;;;;;2.45;1.98;;;;;;;9.99;82.24;99050.38;5019022;28;20444;-78
2021/11/02 15:51:32;;;;;;;0.85;0.80;;;;;;;9.97;81.96;99049.03;5018099;28;20465;-78
2021/11/02 15:53:59;;;;;;;0.73;0.73;;;;;;;9.97;82.58;99057.97;5025159;28;20419;-78
2021/11/02 15:56:25;;;;;;;1.20;1.10;;;;;;;9.94;82.26;99058.53;5017567;28;20395;-78
2021/11/02 15:58:57;;;;;;;0.40;0.40;;;;;;;9.91;81.97;99059.06;5017766;28;20412;-78
2021/11/02 16:01:35;;;;;;;1.77;0.70;;;;;;;9.92;81.88;99057.97;5031085;28;20423;-78
2021/11/02 16:04:13;;;;;;;3.25;2.08;;;;;;;9.89;82.68;99061.22;5030925;28;20406;-78
2021/11/02 16:07:08;;;;;;;3.20;1.00;;;;;;;9.86;83.00;99053.66;5028850;28;20409;-78
2021/11/02 16:09:46;;;;;;;0.93;0.93;;;;;;;9.86;82.57;99054.47;5024750;28;20447;-79
2021/11/02 16:12:25;;;;;;;2.30;1.40;;;;;;;9.82;83.13;99052.56;5042722;28;20420;-78
2021/11/02 16:14:55;;;;;;;4.38;2.40;;;;;;;9.84;83.16;99056.66;5019622;28;20406;-79
2021/11/02 16:17:22;;;;;;;1.70;1.60;;;;;;;9.84;83.18;99053.94;5029106;28;20452;-78
2021/11/02 16:19:49;;;;;;;2.83;2.25;;;;;;;9.82;83.44;99056.09;5020265;28;20729;-78
2021/11/02 16:22:14;;;;;;;0.80;0.75;;;;;;;9.83;83.65;99052.31;5022534;28;20412;-80
2021/11/02 16:24:41;;;;;;;1.27;0.77;;;;;;;9.81;82.80;99053.69;5032251;28;20947;-78
2021/11/02 16:27:21;;;;;;;0.70;0.70;;;;;;;9.81;83.13;99050.97;5031828;28;20417;-78
2021/11/02 16:29:47;;;;;;;4.40;0.80;;;;;;;9.80;83.30;99046.63;5016717;28;20914;-77
2021/11/02 16:32:25;;;;;;;0.70;0.70;;;;;;;9.79;83.06;99053.94;5017446;28;20786;-78
2021/11/02 16:34:51;;;;;;;0.40;0.40;;;;;;;9.80;83.29;99050.16;5024879;28;20435;-78
2021/11/02 16:37:30;;;;;;;1.10;0.50;;;;;;;9.80;83.58;99052.06;5027895;28;20433;-78
2021/11/02 16:40:17;;;;;;;17.15;8.98;;;;;;;9.81;84.06;99048.28;5026882;28;20410;-77
2021/11/02 16:42:54;;;;;;;6.28;3.75;;;;;;;9.80;83.98;99057.47;5030079;28;20797;-79
2021/11/02 16:45:19;;;;;;;1.75;1.25;;;;;;;9.79;83.90;99062.06;5029423;28;20868;-79
2021/11/02 16:47:47;;;;;;;5.90;5.10;;;;;;;9.80;83.75;99060.16;5025041;28;20495;-78
2021/11/02 16:50:13;;;;;;;4.78;3.33;;;;;;;9.81;83.86;99059.88;5027373;28;20411;-77
2021/11/02 16:52:41;;;;;;;5.80;2.40;;;;;;;9.79;83.83;99053.13;5029028;28;20817;-78